createdAt,value
2024-05-09T00:00:46.262Z,100.00
2024-05-09T00:03:13.804Z,100.00
2024-05-09T00:05:42.109Z,100.00
2024-05-09T00:08:10.746Z,100.00
2024-05-09T00:10:40.159Z,100.00
2024-05-09T00:13:08.547Z,100.00
2024-05-09T00:15:36.451Z,100.00
2024-05-09T00:18:05.454Z,100.00
2024-05-09T00:20:38.837Z,100.00
2024-05-09T00:23:12.862Z,100.00
2024-05-09T00:25:43.408Z,100.00
2024-05-09T00:28:12.612Z,100.00
2024-05-09T00:30:40.306Z,100.00
2024-05-09T00:33:09.856Z,100.00
2024-05-09T00:35:38.661Z,100.00
2024-05-09T00:38:06.362Z,100.00
2024-05-09T00:40:42.007Z,100.00
2024-05-09T00:43:14.822Z,100.00
2024-05-09T00:45:43.994Z,100.00
2024-05-09T00:48:15.231Z,100.00
2024-05-09T00:50:46.730Z,100.00
2024-05-09T00:53:16.552Z,100.00
2024-05-09T00:55:44.561Z,100.00
2024-05-09T00:58:16.385Z,100.00
2024-05-09T01:00:44.351Z,100.00
2024-05-09T01:03:13.605Z,100.00
2024-05-09T01:05:44.752Z,100.00
2024-05-09T01:08:12.922Z,100.00
2024-05-09T01:10:43.807Z,100.00
2024-05-09T01:13:12.697Z,100.00
2024-05-09T01:15:39.971Z,100.00
2024-05-09T01:18:10.464Z,100.00
2024-05-09T01:20:42.350Z,100.00
2024-05-09T01:23:14.569Z,100.00
2024-05-09T01:25:44.349Z,100.00
2024-05-09T01:28:12.163Z,100.00
2024-05-09T01:30:39.445Z,100.00
2024-05-09T01:33:09.285Z,100.00
2024-05-09T01:35:39.422Z,100.00
2024-05-09T01:38:07.833Z,100.00
2024-05-09T01:40:38.700Z,100.00
2024-05-09T01:43:09.199Z,100.00
2024-05-09T01:45:37.500Z,100.00
2024-05-09T01:48:05.512Z,100.00
2024-05-09T01:50:38.885Z,100.00
2024-05-09T01:53:13.629Z,100.00
2024-05-09T01:55:41.564Z,100.00
2024-05-09T01:58:09.897Z,100.00
2024-05-09T02:00:41.274Z,100.00
2024-05-09T02:03:14.441Z,100.00
2024-05-09T02:05:46.195Z,100.00
2024-05-09T02:08:15.654Z,100.00
2024-05-09T02:10:47.632Z,100.00
2024-05-09T02:13:16.556Z,100.00
2024-05-09T02:15:44.804Z,100.00
2024-05-09T02:18:12.864Z,100.00
2024-05-09T02:20:42.078Z,100.00
2024-05-09T02:23:10.500Z,100.00
2024-05-09T02:25:38.244Z,100.00
2024-05-09T02:28:06.318Z,100.00
2024-05-09T02:30:39.523Z,100.00
2024-05-09T02:33:11.418Z,100.00
2024-05-09T02:35:41.389Z,100.00
2024-05-09T02:38:10.038Z,100.00
2024-05-09T02:40:39.502Z,100.00
2024-05-09T02:43:10.126Z,100.00
2024-05-09T02:45:39.434Z,100.00
2024-05-09T02:48:07.956Z,100.00
2024-05-09T02:50:39.120Z,100.00
2024-05-09T02:53:09.216Z,100.00
2024-05-09T02:55:38.679Z,100.00
2024-05-09T02:58:10.302Z,100.00
2024-05-09T03:00:41.300Z,100.00
2024-05-09T03:03:13.297Z,100.00
2024-05-09T03:05:46.600Z,100.00
2024-05-09T03:08:14.545Z,100.00
2024-05-09T03:10:42.212Z,100.00
2024-05-09T03:13:13.489Z,100.00
2024-05-09T03:15:42.144Z,100.00
2024-05-09T03:18:09.870Z,100.00
2024-05-09T03:20:38.534Z,100.00
2024-05-09T03:23:09.520Z,100.00
2024-05-09T03:25:38.305Z,100.00
2024-05-09T03:28:06.175Z,100.00
2024-05-09T03:30:40.839Z,100.00
2024-05-09T03:33:13.207Z,100.00
2024-05-09T03:35:41.490Z,100.00
2024-05-09T03:38:09.154Z,100.00
2024-05-09T03:40:36.786Z,100.00
2024-05-09T03:43:04.293Z,100.00
2024-05-09T03:45:31.654Z,100.00
2024-05-09T03:47:59.158Z,100.00
2024-05-09T03:50:33.807Z,100.00
2024-05-09T03:53:03.420Z,100.00
2024-05-09T03:55:31.500Z,100.00
2024-05-09T03:57:59.274Z,100.00
2024-05-09T04:00:35.374Z,100.00
2024-05-09T04:03:09.473Z,100.00
2024-05-09T04:05:43.111Z,100.00
2024-05-09T04:08:13.286Z,100.00
2024-05-09T04:10:41.336Z,100.00
2024-05-09T04:13:10.530Z,100.00
2024-05-09T04:15:37.810Z,100.00
2024-05-09T04:18:05.603Z,100.00
2024-05-09T04:20:38.417Z,100.00
2024-05-09T04:23:11.907Z,100.00
2024-05-09T04:25:45.138Z,100.00
2024-05-09T04:28:13.598Z,100.00
2024-05-09T04:30:41.836Z,100.00
2024-05-09T04:33:12.363Z,100.00
2024-05-09T04:35:42.980Z,100.00
2024-05-09T04:38:11.540Z,100.00
2024-05-09T04:40:39.087Z,100.00
2024-05-09T04:43:07.660Z,100.00
2024-05-09T04:45:35.557Z,100.00
2024-05-09T04:48:03.511Z,100.00
2024-05-09T04:50:36.879Z,100.00
2024-05-09T04:53:08.508Z,100.00
2024-05-09T04:55:37.547Z,100.00
2024-05-09T04:58:07.684Z,100.00
2024-05-09T05:00:37.904Z,100.00
2024-05-09T05:03:13.265Z,100.00
2024-05-09T05:05:44.102Z,100.00
2024-05-09T05:08:13.909Z,100.00
2024-05-09T05:10:42.960Z,100.00
2024-05-09T05:13:20.843Z,100.00
2024-05-09T05:15:51.682Z,100.00
2024-05-09T05:18:19.610Z,100.00
2024-05-09T05:20:47.381Z,100.00
2024-05-09T05:23:16.653Z,100.00
2024-05-09T05:25:45.095Z,100.00
2024-05-09T05:28:12.486Z,100.00
2024-05-09T05:30:41.296Z,100.00
2024-05-09T05:33:11.515Z,100.00
2024-05-09T05:35:39.736Z,100.00
2024-05-09T05:38:08.429Z,100.00
2024-05-09T05:40:38.417Z,100.00
2024-05-09T05:43:11.011Z,100.00
2024-05-09T05:45:39.329Z,100.00
2024-05-09T05:48:08.186Z,100.00
2024-05-09T05:50:37.910Z,100.00
2024-05-09T05:53:08.204Z,100.00
2024-05-09T05:55:40.427Z,100.00
2024-05-09T05:58:11.809Z,100.00
2024-05-09T06:00:41.032Z,100.00
2024-05-09T06:03:10.482Z,100.00
2024-05-09T06:05:44.165Z,100.00
2024-05-09T06:08:12.187Z,100.00
2024-05-09T06:10:41.029Z,100.00
2024-05-09T06:13:13.645Z,100.00
2024-05-09T06:15:41.590Z,100.00
2024-05-09T06:18:10.747Z,100.00
2024-05-09T06:20:43.048Z,100.00
2024-05-09T06:23:11.649Z,100.00
2024-05-09T06:25:39.331Z,100.00
2024-05-09T06:28:07.096Z,100.00
2024-05-09T06:30:42.436Z,100.00
2024-05-09T06:33:13.312Z,100.00
2024-05-09T06:35:43.194Z,100.00
2024-05-09T06:38:10.786Z,100.00
2024-05-09T06:40:41.875Z,100.00
2024-05-09T06:43:16.371Z,100.00
2024-05-09T06:45:47.352Z,100.00
2024-05-09T06:48:15.184Z,100.00
2024-05-09T06:50:42.473Z,100.00
2024-05-09T06:53:10.128Z,100.00
2024-05-09T06:55:37.912Z,100.00
2024-05-09T06:58:11.736Z,100.00
2024-05-09T07:00:41.126Z,100.00
2024-05-09T07:03:15.369Z,100.00
2024-05-09T07:05:45.807Z,100.00
2024-05-09T07:08:13.850Z,100.00
2024-05-09T07:10:41.675Z,100.00
2024-05-09T07:13:10.535Z,100.00
2024-05-09T07:15:38.621Z,100.00
2024-05-09T07:18:18.354Z,100.00
2024-05-09T07:20:47.508Z,100.00
2024-05-09T07:23:15.932Z,100.00
2024-05-09T07:25:43.565Z,100.00
2024-05-09T07:28:15.505Z,100.00
2024-05-09T07:30:43.514Z,100.00
2024-05-09T07:33:21.368Z,97.90
2024-05-09T07:35:50.215Z,84.76
2024-05-09T07:38:17.607Z,85.96
2024-05-09T07:40:45.061Z,79.78
2024-05-09T07:43:13.425Z,90.01
2024-05-09T07:45:50.455Z,87.07
2024-05-09T07:52:38.204Z,72.07
2024-05-09T07:53:47.807Z,79.68
2024-05-09T07:56:19.901Z,72.57
2024-05-09T07:58:51.429Z,64.90
2024-05-09T08:01:19.380Z,67.27
2024-05-09T08:03:49.514Z,70.38
2024-05-09T08:06:17.175Z,52.03
2024-05-09T08:08:46.791Z,60.81
2024-05-09T08:11:14.103Z,56.42
2024-05-09T08:13:41.525Z,51.77
2024-05-09T08:16:09.662Z,48.99
2024-05-09T08:18:37.518Z,54.31
2024-05-09T08:21:05.318Z,55.19
2024-05-09T08:23:32.501Z,50.95
2024-05-09T08:25:59.947Z,46.82
2024-05-09T08:28:28.146Z,44.75
2024-05-09T08:30:55.687Z,48.41
2024-05-09T08:33:23.247Z,50.82
2024-05-09T08:35:50.699Z,56.16
2024-05-09T08:38:17.897Z,50.97
2024-05-09T08:40:45.297Z,50.60
2024-05-09T08:43:15.677Z,49.45
2024-05-09T08:45:44.735Z,43.87
2024-05-09T08:48:15.732Z,50.91
2024-05-09T08:50:45.111Z,43.30
2024-05-09T08:53:15.045Z,44.62
2024-05-09T08:55:43.973Z,44.83
2024-05-09T08:58:20.384Z,39.91
2024-05-09T09:00:48.697Z,42.43
2024-05-09T09:03:25.392Z,42.33
2024-05-09T09:06:02.374Z,36.26
2024-05-09T09:08:29.785Z,38.66
2024-05-09T09:11:00.269Z,40.71
2024-05-09T09:13:28.422Z,35.25
2024-05-09T09:15:59.167Z,35.80
2024-05-09T09:18:27.956Z,37.04
2024-05-09T09:20:55.871Z,36.66
2024-05-09T09:23:23.392Z,37.53
2024-05-09T09:25:50.949Z,32.90
2024-05-09T09:28:18.630Z,36.26
2024-05-09T09:30:46.454Z,35.33
2024-05-09T09:33:13.961Z,34.56
2024-05-09T09:35:42.611Z,35.30
2024-05-09T09:38:11.253Z,37.00
2024-05-09T09:40:46.695Z,31.60
2024-05-09T09:43:21.993Z,33.06
2024-05-09T09:45:52.997Z,33.67
2024-05-09T09:48:22.895Z,33.26
2024-05-09T09:50:52.769Z,29.79
2024-05-09T09:53:20.517Z,31.58
2024-05-09T09:55:49.150Z,32.01
2024-05-09T09:58:17.841Z,32.44
2024-05-09T10:00:45.853Z,31.95
2024-05-09T10:03:13.622Z,29.93
2024-05-09T10:05:45.096Z,27.85
2024-05-09T10:08:16.305Z,29.86
2024-05-09T10:10:50.611Z,30.11
2024-05-09T10:13:20.221Z,31.22
2024-05-09T10:15:51.358Z,32.10
2024-05-09T10:18:28.599Z,29.34
2024-05-09T10:20:58.084Z,27.59
2024-05-09T10:23:26.161Z,28.32
2024-05-09T10:26:05.296Z,30.42
2024-05-09T10:28:35.785Z,26.22
2024-05-09T10:31:14.037Z,28.54
2024-05-09T10:33:50.468Z,25.75
2024-05-09T10:36:22.631Z,24.48
2024-05-09T10:38:50.770Z,27.64
2024-05-09T10:41:19.000Z,27.16
2024-05-09T10:43:47.652Z,26.72
2024-05-09T10:46:15.373Z,26.87
2024-05-09T10:48:44.258Z,27.00
2024-05-09T10:51:12.105Z,22.63
2024-05-09T10:53:46.421Z,24.41
2024-05-09T10:56:14.849Z,26.41
2024-05-09T10:58:42.265Z,28.60
2024-05-09T11:01:10.469Z,28.98
2024-05-09T11:03:39.332Z,27.39
2024-05-09T11:06:07.886Z,31.15
2024-05-09T11:08:36.194Z,30.49
2024-05-09T11:11:07.707Z,24.43
2024-05-09T11:13:37.884Z,25.29
2024-05-09T11:16:16.881Z,27.88
2024-05-09T11:18:44.437Z,32.13
2024-05-09T11:21:14.649Z,32.46
2024-05-09T11:23:42.130Z,29.91
2024-05-09T11:26:11.155Z,29.94
2024-05-09T11:28:38.793Z,27.60
2024-05-09T11:31:08.375Z,29.74
2024-05-09T11:33:40.561Z,28.85
2024-05-09T11:36:09.712Z,29.14
2024-05-09T11:38:37.122Z,27.20
2024-05-09T11:41:05.781Z,26.58
2024-05-09T11:43:33.769Z,23.06
2024-05-09T11:46:03.546Z,26.34
2024-05-09T11:48:32.006Z,23.10
2024-05-09T11:50:59.724Z,26.30
2024-05-09T11:53:26.943Z,25.18
2024-05-09T11:55:54.285Z,28.55
2024-05-09T11:58:23.121Z,28.65
2024-05-09T12:00:50.843Z,27.01
2024-05-09T12:03:18.304Z,26.22
2024-05-09T12:05:45.822Z,25.46
2024-05-09T12:08:13.491Z,25.31
2024-05-09T12:10:41.331Z,25.19
2024-05-09T12:13:08.865Z,23.30
2024-05-09T12:15:38.066Z,26.50
2024-05-09T12:18:07.421Z,25.66
2024-05-09T12:20:38.667Z,24.86
2024-05-09T12:23:10.124Z,25.43
2024-05-09T12:25:40.319Z,31.71
2024-05-09T12:28:10.897Z,30.00
2024-05-09T12:30:40.519Z,31.92
2024-05-09T12:33:11.299Z,32.36
2024-05-09T12:35:40.328Z,34.40
2024-05-09T12:38:07.831Z,31.80
2024-05-09T12:40:37.988Z,31.64
2024-05-09T12:43:08.844Z,30.95
2024-05-09T12:45:37.625Z,28.21
2024-05-09T12:48:09.818Z,27.70
2024-05-09T12:50:41.137Z,23.48
2024-05-09T12:53:08.639Z,25.88
2024-05-09T12:55:44.187Z,26.70
2024-05-09T12:58:22.361Z,31.86
2024-05-09T13:00:52.300Z,32.35
2024-05-09T13:03:20.293Z,33.75
2024-05-09T13:05:48.219Z,35.23
2024-05-09T13:08:15.818Z,37.86
2024-05-09T13:10:43.350Z,35.71
2024-05-09T13:13:11.371Z,29.54
2024-05-09T13:15:39.111Z,27.54
2024-05-09T13:18:06.939Z,25.74
2024-05-09T13:20:37.089Z,28.81
2024-05-09T13:23:07.242Z,30.94
2024-05-09T13:25:35.797Z,29.76
2024-05-09T13:28:07.603Z,26.68
2024-05-09T13:30:40.830Z,29.25
2024-05-09T13:33:11.514Z,30.70
2024-05-09T13:35:47.499Z,31.94
2024-05-09T13:38:21.407Z,33.06
2024-05-09T13:40:50.016Z,31.46
2024-05-09T13:43:18.561Z,34.16
2024-05-09T13:45:46.876Z,38.08
2024-05-09T13:48:14.590Z,36.08
2024-05-09T13:50:42.059Z,34.79
2024-05-09T13:53:09.436Z,36.08
2024-05-09T13:55:40.416Z,37.13
2024-05-09T13:58:09.016Z,36.03
2024-05-09T14:00:45.899Z,39.06
2024-05-09T14:03:18.303Z,34.12
2024-05-09T14:05:48.178Z,33.21
2024-05-09T14:08:18.001Z,37.02
2024-05-09T14:10:49.217Z,33.21
2024-05-09T14:13:17.092Z,33.29
2024-05-09T14:15:46.112Z,32.86
2024-05-09T14:18:14.560Z,34.54
2024-05-09T14:20:43.083Z,33.17
2024-05-09T14:23:10.916Z,33.65
2024-05-09T14:25:42.699Z,34.26
2024-05-09T14:28:12.522Z,34.07
2024-05-09T14:30:40.532Z,33.93
2024-05-09T14:33:08.999Z,35.64
2024-05-09T14:35:40.098Z,33.65
2024-05-09T14:38:08.844Z,35.63
2024-05-09T14:40:42.308Z,37.22
2024-05-09T14:43:49.439Z,40.30
2024-05-09T14:46:16.887Z,37.03
2024-05-09T14:48:44.459Z,34.48
2024-05-09T14:51:12.015Z,35.32
2024-05-09T14:53:39.299Z,34.84
2024-05-09T14:56:06.884Z,37.05
2024-05-09T14:58:34.085Z,37.55
2024-05-09T15:01:01.906Z,37.97
2024-05-09T15:03:29.412Z,37.15
2024-05-09T15:05:57.646Z,36.08
2024-05-09T15:08:25.126Z,35.58
2024-05-09T15:10:52.744Z,36.45
2024-05-09T15:13:21.607Z,39.00
2024-05-09T15:15:49.294Z,34.88
2024-05-09T15:18:17.150Z,34.01
2024-05-09T15:20:45.340Z,36.74
2024-05-09T15:23:12.922Z,34.75
2024-05-09T15:25:40.438Z,33.40
2024-05-09T15:28:08.350Z,35.60
2024-05-09T15:30:36.587Z,36.76
2024-05-09T15:33:04.877Z,35.81
2024-05-09T15:35:34.144Z,35.97
2024-05-09T15:38:03.603Z,34.64
2024-05-09T15:40:38.356Z,35.57
2024-05-09T15:43:09.127Z,35.31
2024-05-09T15:45:38.044Z,34.10
2024-05-09T15:48:06.539Z,35.30
2024-05-09T15:50:38.938Z,36.21
2024-05-09T15:53:10.181Z,34.19
2024-05-09T15:55:38.576Z,34.93
2024-05-09T15:58:07.201Z,35.49
2024-05-09T16:00:39.438Z,35.50
2024-05-09T16:03:14.699Z,35.11
2024-05-09T16:05:47.046Z,35.59
2024-05-09T16:08:15.346Z,36.89
2024-05-09T16:10:46.201Z,36.61
2024-05-09T16:13:14.931Z,36.30
2024-05-09T16:15:44.268Z,36.05
2024-05-09T16:18:12.278Z,34.30
2024-05-09T16:20:41.792Z,35.09
2024-05-09T16:23:11.154Z,34.60
2024-05-09T16:25:39.761Z,35.26
2024-05-09T16:28:10.087Z,35.25
2024-05-09T16:30:41.408Z,34.60
2024-05-09T16:33:09.610Z,35.98
2024-05-09T16:35:40.231Z,37.37
2024-05-09T16:38:07.820Z,36.09
2024-05-09T16:40:39.891Z,35.17
2024-05-09T16:43:14.562Z,36.83
2024-05-09T16:45:45.036Z,36.06
2024-05-09T16:48:14.545Z,35.99
2024-05-09T16:50:42.404Z,35.41
2024-05-09T16:53:09.796Z,36.12
2024-05-09T16:55:37.196Z,36.35
2024-05-09T16:58:07.070Z,36.61
2024-05-09T17:00:40.937Z,36.77
2024-05-09T17:03:13.046Z,35.78
2024-05-09T17:05:42.125Z,36.05
2024-05-09T17:08:10.078Z,36.19
2024-05-09T17:10:37.701Z,37.52
2024-05-09T17:13:07.323Z,36.36
2024-05-09T17:15:37.231Z,36.66
2024-05-09T17:18:06.963Z,36.93
2024-05-09T17:20:36.941Z,38.09
2024-05-09T17:23:13.134Z,38.00
2024-05-09T17:25:41.741Z,36.41
2024-05-09T17:28:09.858Z,37.50
2024-05-09T17:30:39.624Z,37.76
2024-05-09T17:33:10.303Z,37.69
2024-05-09T17:35:38.717Z,38.22
2024-05-09T17:38:09.269Z,37.50
2024-05-09T17:40:38.274Z,38.08
2024-05-09T17:43:09.041Z,38.39
2024-05-09T17:45:39.447Z,39.69
2024-05-09T17:48:09.852Z,40.74
2024-05-09T17:50:38.270Z,42.82
2024-05-09T17:53:06.853Z,42.50
2024-05-09T17:55:35.528Z,42.93
2024-05-09T17:58:04.628Z,42.97
2024-05-09T18:00:38.157Z,44.99
2024-05-09T18:03:09.307Z,45.07
2024-05-09T18:05:37.601Z,47.22
2024-05-09T18:08:09.122Z,46.65
2024-05-09T18:10:39.257Z,49.23
2024-05-09T18:13:12.243Z,46.27
2024-05-09T18:15:40.232Z,56.36
2024-05-09T18:18:09.198Z,61.12
2024-05-09T18:20:42.960Z,62.98
2024-05-09T18:23:14.814Z,59.33
2024-05-09T18:25:43.492Z,67.32
2024-05-09T18:28:11.098Z,67.03
2024-05-09T18:30:40.656Z,71.90
2024-05-09T18:33:11.219Z,68.17
2024-05-09T18:35:39.083Z,68.37
2024-05-09T18:38:06.353Z,68.71
2024-05-09T18:40:36.591Z,72.47
2024-05-09T18:43:08.295Z,75.72
2024-05-09T18:45:39.895Z,75.75
2024-05-09T18:48:10.101Z,77.07
2024-05-09T18:50:40.568Z,79.16
2024-05-09T18:53:11.810Z,85.87
2024-05-09T18:55:40.682Z,85.48
2024-05-09T18:58:08.006Z,89.30
2024-05-09T19:00:38.687Z,87.88
2024-05-09T19:03:11.109Z,92.63
2024-05-09T19:05:41.473Z,87.25
2024-05-09T19:08:09.320Z,93.94
2024-05-09T19:10:37.654Z,91.15
2024-05-09T19:13:09.195Z,88.62
2024-05-09T19:15:40.257Z,91.23
2024-05-09T19:18:08.484Z,98.73
2024-05-09T19:20:36.919Z,96.49
2024-05-09T19:23:06.478Z,97.40
2024-05-09T19:25:34.952Z,99.22
2024-05-09T19:28:03.270Z,99.32
2024-05-09T19:30:38.436Z,94.90
2024-05-09T19:33:10.241Z,100.00
2024-05-09T19:35:38.487Z,100.00
2024-05-09T19:38:05.750Z,100.00
2024-05-09T19:40:34.598Z,100.00
2024-05-09T19:43:03.791Z,100.00
2024-05-09T19:45:33.634Z,100.00
2024-05-09T19:48:01.928Z,100.00
2024-05-09T19:50:37.244Z,100.00
2024-05-09T19:53:10.939Z,100.00
2024-05-09T19:55:38.637Z,100.00
2024-05-09T19:58:07.538Z,100.00
2024-05-09T20:00:38.610Z,100.00
2024-05-09T20:03:08.832Z,100.00
2024-05-09T20:05:37.270Z,100.00
2024-05-09T20:08:05.793Z,98.82
2024-05-09T20:10:35.294Z,100.00
2024-05-09T20:13:05.434Z,100.00
2024-05-09T20:15:38.111Z,98.66
2024-05-09T20:18:06.727Z,100.00
2024-05-09T20:20:39.598Z,100.00
2024-05-09T20:23:10.704Z,100.00
2024-05-09T20:25:38.053Z,100.00
2024-05-09T20:28:08.865Z,100.00
2024-05-09T20:30:36.881Z,100.00
2024-05-09T20:33:07.472Z,100.00
2024-05-09T20:35:36.573Z,100.00
2024-05-09T20:38:04.629Z,100.00
2024-05-09T20:40:36.727Z,100.00
2024-05-09T20:43:08.056Z,100.00
2024-05-09T20:45:36.113Z,100.00
2024-05-09T20:48:04.100Z,100.00
2024-05-09T20:50:38.150Z,100.00
2024-05-09T20:53:13.709Z,100.00
2024-05-09T20:55:43.039Z,100.00
2024-05-09T20:58:10.834Z,100.00
2024-05-09T21:00:42.354Z,100.00
2024-05-09T21:03:13.839Z,100.00
2024-05-09T21:05:42.162Z,100.00
2024-05-09T21:08:09.482Z,100.00
2024-05-09T21:10:37.579Z,100.00
2024-05-09T21:13:06.700Z,100.00
2024-05-09T21:15:35.301Z,100.00
2024-05-09T21:18:03.318Z,100.00
2024-05-09T21:20:33.351Z,100.00
2024-05-09T21:23:04.192Z,100.00
2024-05-09T21:25:32.420Z,100.00
2024-05-09T21:28:00.512Z,100.00
2024-05-09T21:30:37.742Z,100.00
2024-05-09T21:33:10.968Z,100.00
2024-05-09T21:35:39.791Z,100.00
2024-05-09T21:38:07.977Z,100.00
2024-05-09T21:40:36.984Z,100.00
2024-05-09T21:43:07.820Z,100.00
2024-05-09T21:45:36.028Z,100.00
2024-05-09T21:48:04.624Z,100.00
2024-05-09T21:50:39.217Z,100.00
2024-05-09T21:53:09.028Z,100.00
2024-05-09T21:55:36.304Z,100.00
2024-05-09T21:58:04.122Z,100.00
2024-05-09T22:00:37.017Z,100.00
2024-05-09T22:03:10.121Z,100.00
2024-05-09T22:05:39.388Z,100.00
2024-05-09T22:08:07.160Z,100.00
2024-05-09T22:10:36.365Z,100.00
2024-05-09T22:13:08.568Z,100.00
2024-05-09T22:15:39.886Z,100.00
2024-05-09T22:18:09.849Z,100.00
2024-05-09T22:20:44.840Z,100.00
2024-05-09T22:23:14.136Z,100.00
2024-05-09T22:25:42.556Z,100.00
2024-05-09T22:28:10.142Z,100.00
2024-05-09T22:30:39.697Z,100.00
2024-05-09T22:33:10.327Z,100.00
2024-05-09T22:35:40.100Z,100.00
2024-05-09T22:38:07.559Z,100.00
2024-05-09T22:40:45.364Z,100.00
2024-05-09T22:43:21.375Z,100.00
2024-05-09T22:45:50.805Z,100.00
2024-05-09T22:48:18.789Z,100.00
2024-05-09T22:50:46.272Z,100.00
2024-05-09T22:53:13.484Z,100.00
2024-05-09T22:55:40.835Z,100.00
2024-05-09T22:58:08.229Z,100.00
2024-05-09T23:00:35.807Z,100.00
2024-05-09T23:03:03.862Z,100.00
2024-05-09T23:05:32.701Z,100.00
2024-05-09T23:08:02.181Z,100.00
2024-05-09T23:10:35.732Z,100.00
2024-05-09T23:13:05.949Z,100.00
2024-05-09T23:15:33.446Z,100.00
2024-05-09T23:18:00.855Z,100.00
2024-05-09T23:20:36.255Z,100.00
2024-05-09T23:23:10.772Z,100.00
2024-05-09T23:25:39.155Z,100.00
2024-05-09T23:28:06.812Z,100.00
2024-05-09T23:30:38.566Z,100.00
2024-05-09T23:33:10.493Z,100.00
2024-05-09T23:35:38.771Z,100.00
2024-05-09T23:38:05.955Z,100.00
2024-05-09T23:40:39.485Z,100.00
2024-05-09T23:43:09.768Z,100.00
2024-05-09T23:45:37.773Z,100.00
2024-05-09T23:48:06.587Z,100.00
2024-05-09T23:50:37.535Z,100.00
2024-05-09T23:53:08.653Z,100.00
2024-05-09T23:55:37.311Z,100.00
2024-05-09T23:58:05.192Z,100.00
